x

Cape Cleare - 17 Nm South Of Montague Is, Ak (46076) Wave Buoy

1:50am - Tue 26th Sep 2017 All times are AKDT. -8 hours from GMT.

  • Sig Wave height 3.6ft
  • Swell Direction
  • Peak Period 4s
  • Average Period 4s
  • Wind
    20mph, 25mph gusts
  • Sea Temp 53°f
  • Air Temp 50°f
  • Sea Pressure 1006.3mb
  • Cape Cleare - 17 Nm South Of Montague Is,  Ak
  • Cape Cleare - 17 Nm South Of Montague Is,  Ak

More Historic Weather Station data

Upgrade to MSW Pro to gain access to the past 30 days of data for over 8000 Wavebouys and Weather Stations around the globe.

Join

Comparision Forecast

View Surf forecast
   
Tue 09/26 1:50am 3.5ft 4s 4s 20 25 mph 1006.3mb 53f 50f
12:50am 3.5ft 7s 4s 20 25 mph 1007mb 53f 50f
Mon 09/25 11:50pm 3.5ft 4s 4s 20 25 mph 1007.7mb 52f 51f
10:50pm 3.5ft 8s 4s 20 22 mph 1008.1mb 52f 51f
9:50pm 3.5ft 8s 4s 18 22 mph 1008.8mb 52f 51f
8:50pm 3.5ft 8s 5s 16 20 mph 1009.4mb 52f 51f
7:50pm 3.5ft 8s 5s 13 18 mph 1009.7mb 52f 51f
6:50pm 3.5ft 8s 5s 16 18 mph 1010mb 52f 51f
5:50pm 3.5ft 7s 6s 13 16 mph 1010.4mb 52f 51f
4:50pm 3.5ft 8s 6s 7 9 mph 1011.2mb 52f 50f
3:50pm 4ft 7s 6s 4 11 mph 1011.7mb 52f 49f
2:50pm 4ft 7s 6s 9 11 mph 1012.1mb 52f 51f
1:50pm 4ft 8s 6s 9 11 mph 1012.2mb 52f 51f
12:50pm 4ft 8s 6s 2 2 mph 1012.2mb 53f 50f
11:50am 4ft 9s 6s 2 4 mph 1012mb 52f 50f
10:50am 4.5ft 8s 7s 4 7 mph 1011.6mb 52f 50f
9:50am 4.5ft 7s 6s 2 4 mph 1011.1mb 52f 51f
8:50am 4.5ft 8s 6s 7 7 mph 1010.7mb 52f 51f
7:50am 4.5ft 8s 6s 7 9 mph 1010.2mb 52f 50f
6:50am 4.5ft 9s 6s 4 4 mph 1009.8mb 52f 49f
5:50am 5ft 8s 6s 9 9 mph 1009.7mb 52f 47f
4:50am 5.5ft 9s 6s 7 9 mph 1009.3mb 52f 48f
3:50am 5.5ft 10s 7s 11 13 mph 1008.9mb 53f 49f
2:50am 6ft 9s 6s 13 18 mph 1008.6mb 52f 50f
1:50am 6.5ft 9s 7s 11 13 mph 1008.2mb 52f 51f
12:50am 6.5ft 10s 7s 13 16 mph 1007.5mb 52f 51f
Sun 09/24 11:50pm 6ft 9s 7s 11 16 mph 1006.9mb 52f 51f
10:50pm 6ft 9s 7s 9 11 mph 1006.3mb 53f 51f
9:50pm 6ft 10s 7s 13 18 mph 1005.5mb 53f 51f
8:50pm 6ft 10s 6s 16 18 mph 1004.6mb 53f 51f
7:50pm 6.5ft 9s 6s 16 20 mph 1003.6mb 53f 51f
6:50pm 6.5ft 9s 6s 18 20 mph 1002.7mb 53f 51f
5:50pm 7ft 10s 7s 16 20 mph 1001.9mb 53f 51f
4:50pm 7.5ft 9s 8s 13 18 mph 1001.2mb 53f 52f
3:50pm 7ft 9s 7s 7 9 mph 1000.6mb 53f 52f
2:50pm 7.5ft 9s 7s 4 7 mph 1000.1mb 53f 52f
1:50pm 7ft 10s 7s 9 11 mph 999.7mb 52f 51f
12:50pm 6.5ft 8s 7s 9 13 mph 999.1mb 53f 51f
11:50am 6ft 7s 6s 13 16 mph 998.4mb 52f 52f
10:50am 5.5ft 7s 6s 11 13 mph 997.6mb 52f 51f
9:50am 5ft 7s 6s 18 20 mph 996.7mb 52f 51f
8:50am 5ft 6s 6s 13 18 mph 996.6mb 52f 50f
7:50am 5ft 7s 6s 11 13 mph 996.5mb 52f 51f
6:50am 5ft 7s 6s 13 16 mph 996.6mb 52f 51f
5:50am 5.5ft 7s 6s 16 18 mph 996.4mb 52f 51f
4:50am 6ft 7s 6s 16 18 mph 996.3mb 52f 52f
3:50am 6ft 7s 6s 13 16 mph 996.1mb 53f 52f
2:50am 6.5ft 7s 6s 16 20 mph 996.1mb 53f 51f
1:50am 7ft 6s 6s 13 16 mph 996.2mb 53f 53f
12:50am 7ft 7s 6s 11 13 mph 996.4mb 53f 52f
Sat 09/23 11:50pm 6.5ft 6s 6s 16 18 mph 996.9mb 52f 52f
10:50pm 8ft 7s 6s 13 16 mph 997mb 52f 52f
9:50pm 9ft 7s 6s 13 16 mph 997mb 52f 52f
8:50pm 10ft 7s 6s 11 13 mph 997.2mb 52f 52f
7:50pm 9.5ft 7s 6s 27 31 mph 996.9mb 52f 53f
6:50pm 9.5ft 8s 6s 29 36 mph 997.2mb 53f 53f
5:50pm 10ft 8s 6s 29 34 mph 997.6mb 53f 53f
4:50pm 9.5ft 7s 6s 29 36 mph 998mb 53f 53f
3:50pm 9ft 7s 6s 29 36 mph 998.4mb 53f 53f
2:50pm 9.5ft 7s 6s 31 38 mph 999.1mb 53f 53f
1:50pm 9ft 8s 6s 29 36 mph 999.7mb 53f 53f
12:50pm 9ft 7s 6s 29 36 mph 1000.4mb 53f 53f
11:50am 9ft 6s 6s 29 36 mph 1000.8mb 52f 53f
10:50am 9ft 6s 6s 29 34 mph 1001.4mb 53f 52f
9:50am 8.5ft 6s 5s 27 36 mph 1002.1mb 53f 53f
8:50am 7.5ft 6s 6s 29 36 mph 1002.4mb 52f 52f
7:50am 6.5ft 6s 6s 27 34 mph 1002.7mb 52f 52f
6:50am 6ft 5s 6s 22 27 mph 1003.8mb 52f 53f
5:50am 5.5ft 8s 6s 22 27 mph 1004.2mb 52f 52f
4:50am 7ft 11s 6s 22 29 mph 1004.8mb 53f 52f
3:50am 8ft 11s 7s 18 25 mph 1005.5mb 53f 52f
2:50am 8ft 9s 7s 18 22 mph 1006.2mb 53f 52f
1:50am 7.5ft 9s 6s 20 22 mph 1006.7mb 53f 52f
12:50am 9ft 8s 7s 18 22 mph 1007.1mb 53f 52f
Fri 09/22 11:50pm 9ft 8s 7s 18 20 mph 1007.4mb 53f 53f
10:50pm 8ft 9s 7s 16 18 mph 1007.4mb 52f 52f
9:50pm 8.5ft 7s 7s 13 18 mph 1007.2mb 52f 52f
8:50pm 8ft 9s 7s 13 18 mph 1007.2mb 53f 53f
7:50pm 8ft 9s 7s 16 20 mph 1006.9mb 53f 53f
6:50pm 8ft 10s 7s 16 20 mph 1006.7mb 53f 52f
5:50pm 8ft 9s 7s 18 20 mph 1006.5mb 52f 52f
4:50pm 8ft 9s 6s 18 20 mph 1006.4mb 52f 53f
3:50pm 8ft 8s 6s 20 25 mph 1006.1mb 53f 52f
2:50pm 9ft 8s 6s 20 25 mph 1005.9mb 53f 52f
1:50pm 8ft 8s 6s 20 25 mph 1005.7mb 53f 52f
12:50pm 9ft 8s 7s 22 25 mph 1005.4mb 53f 52f
11:50am 9.5ft 8s 7s 22 27 mph 1005.1mb 53f 52f